createdAt,value
2023-01-28T00:01:05.300Z,10.57
2023-01-28T00:03:31.697Z,10.60
2023-01-28T00:06:06.283Z,10.73
2023-01-28T00:08:33.778Z,13.10
2023-01-28T00:11:01.920Z,11.80
2023-01-28T00:13:29.242Z,11.13
2023-01-28T00:16:00.741Z,11.88
2023-01-28T00:18:28.305Z,11.75
2023-01-28T00:21:09.762Z,11.73
2023-01-28T00:23:37.429Z,11.40
2023-01-28T00:26:11.302Z,11.03
2023-01-28T00:28:37.671Z,11.57
2023-01-28T00:31:14.455Z,10.77
2023-01-28T00:33:40.796Z,10.98
2023-01-28T00:36:07.608Z,10.77
2023-01-28T00:38:35.207Z,12.13
2023-01-28T00:41:15.977Z,10.88
2023-01-28T00:43:43.505Z,12.00
2023-01-28T00:46:11.390Z,10.60
2023-01-28T00:48:40.259Z,11.20
2023-01-28T00:51:07.916Z,10.70
2023-01-28T00:53:36.123Z,11.43
2023-01-28T00:56:03.885Z,10.38
2023-01-28T00:58:30.383Z,11.20
2023-01-28T01:00:56.769Z,11.27
2023-01-28T01:03:23.212Z,11.30
2023-01-28T01:05:49.598Z,10.65
2023-01-28T01:08:15.939Z,11.25
2023-01-28T01:10:42.327Z,10.52
2023-01-28T01:13:08.821Z,10.50
2023-01-28T01:15:35.235Z,11.23
2023-01-28T01:18:01.642Z,10.68
2023-01-28T01:20:33.345Z,11.38
2023-01-28T01:22:59.722Z,9.10
2023-01-28T01:25:26.076Z,10.05
2023-01-28T01:27:52.513Z,13.67
2023-01-28T01:30:19.010Z,13.23
2023-01-28T01:32:45.531Z,10.45
2023-01-28T01:35:12.129Z,11.50
2023-01-28T01:37:38.541Z,11.38
2023-01-28T01:40:05.732Z,11.30
2023-01-28T01:42:32.916Z,11.10
2023-01-28T01:45:06.542Z,9.38
2023-01-28T01:47:39.979Z,9.00
2023-01-28T01:50:16.192Z,9.27
2023-01-28T01:52:43.392Z,9.90
2023-01-28T01:55:14.179Z,8.25
2023-01-28T01:57:42.025Z,8.82
2023-01-28T02:00:09.322Z,8.60
2023-01-28T02:02:43.171Z,8.88
2023-01-28T02:05:11.889Z,7.80
2023-01-28T02:07:39.080Z,7.82
2023-01-28T02:10:07.809Z,9.40
2023-01-28T02:12:42.498Z,7.50
2023-01-28T02:15:13.335Z,8.57
2023-01-28T02:17:41.316Z,8.37
2023-01-28T02:20:11.279Z,9.55
2023-01-28T02:23:16.672Z,9.05
2023-01-28T02:25:56.408Z,7.25
2023-01-28T02:28:46.525Z,8.60
2023-01-28T02:31:29.351Z,8.00
2023-01-28T02:34:08.548Z,8.73
2023-01-28T02:36:38.870Z,7.95
2023-01-28T02:39:15.901Z,8.20
2023-01-28T02:42:17.179Z,9.68
2023-01-28T02:44:43.595Z,8.00
2023-01-28T02:47:29.750Z,9.80
2023-01-28T02:49:59.499Z,8.25
2023-01-28T02:53:22.259Z,8.07
2023-01-28T02:56:00.124Z,9.73
2023-01-28T02:58:51.335Z,9.93
2023-01-28T03:01:38.859Z,8.13
2023-01-28T03:04:16.677Z,8.60
2023-01-28T03:06:50.750Z,8.73
2023-01-28T03:09:28.242Z,9.25
2023-01-28T03:12:28.106Z,8.97
2023-01-28T03:15:29.230Z,8.43
2023-01-28T03:18:23.534Z,8.77
2023-01-28T03:21:20.719Z,8.48
2023-01-28T03:24:19.180Z,8.15
2023-01-28T03:27:16.619Z,11.07
2023-01-28T03:30:04.480Z,7.95
2023-01-28T03:32:50.841Z,8.40
2023-01-28T03:35:40.756Z,8.68
2023-01-28T03:38:18.630Z,8.70
2023-01-28T03:41:00.639Z,8.63
2023-01-28T03:43:28.272Z,7.95
2023-01-28T03:45:55.497Z,7.97
2023-01-28T03:48:24.703Z,9.07
2023-01-28T03:50:52.065Z,9.18
2023-01-28T03:53:19.531Z,8.10
2023-01-28T03:55:48.534Z,7.45
2023-01-28T03:58:15.704Z,7.25
2023-01-28T04:00:43.295Z,7.75
2023-01-28T04:03:17.633Z,9.07
2023-01-28T04:05:57.236Z,8.43
2023-01-28T04:08:24.043Z,7.68
2023-01-28T04:10:50.677Z,8.70
2023-01-28T04:13:18.287Z,8.40
2023-01-28T04:15:45.382Z,8.43
2023-01-28T04:18:12.026Z,9.03
2023-01-28T04:20:39.175Z,8.60
2023-01-28T04:23:07.734Z,8.57
2023-01-28T04:25:34.515Z,9.98
2023-01-28T04:28:00.906Z,9.07
2023-01-28T04:30:28.210Z,9.33
2023-01-28T04:32:54.832Z,10.00
2023-01-28T04:35:21.307Z,10.43
2023-01-28T04:37:47.721Z,9.75
2023-01-28T04:40:14.133Z,8.68
2023-01-28T04:42:40.520Z,10.13
2023-01-28T04:45:07.853Z,8.82
2023-01-28T04:47:34.299Z,9.85
2023-01-28T04:50:00.680Z,8.70
2023-01-28T04:52:27.115Z,9.10
2023-01-28T04:54:53.483Z,8.10
2023-01-28T04:57:19.894Z,9.05
2023-01-28T04:59:46.281Z,8.75
2023-01-28T05:02:12.680Z,10.13
2023-01-28T05:04:39.066Z,9.65
2023-01-28T05:07:05.456Z,9.13
2023-01-28T05:09:31.834Z,9.07
2023-01-28T05:11:58.187Z,7.57
2023-01-28T05:14:24.622Z,8.27
2023-01-28T05:16:51.068Z,10.55
2023-01-28T05:19:17.428Z,8.40
2023-01-28T05:21:43.813Z,9.98
2023-01-28T05:24:10.474Z,8.35
2023-01-28T05:26:37.274Z,9.10
2023-01-28T05:29:04.138Z,9.60
2023-01-28T05:31:30.567Z,11.30
2023-01-28T05:33:56.962Z,9.82
2023-01-28T05:36:23.360Z,10.68
2023-01-28T05:38:49.712Z,11.52
2023-01-28T05:41:16.262Z,10.13
2023-01-28T05:43:42.685Z,10.63
2023-01-28T05:46:09.211Z,9.63
2023-01-28T05:48:35.622Z,9.10
2023-01-28T05:51:02.021Z,10.57
2023-01-28T05:53:28.415Z,9.27
2023-01-28T05:55:54.862Z,9.60
2023-01-28T05:58:22.535Z,10.88
2023-01-28T06:00:48.919Z,10.27
2023-01-28T06:03:15.327Z,10.15
2023-01-28T06:05:41.730Z,11.38
2023-01-28T06:08:08.722Z,11.30
2023-01-28T06:10:35.438Z,10.43
2023-01-28T06:13:02.189Z,12.00
2023-01-28T06:15:28.586Z,12.63
2023-01-28T06:17:54.950Z,11.55
2023-01-28T06:20:21.374Z,11.13
2023-01-28T06:22:51.052Z,11.90
2023-01-28T06:25:17.800Z,12.68
2023-01-28T06:27:44.399Z,15.00
2023-01-28T06:30:11.732Z,13.55
2023-01-28T06:32:38.127Z,14.20
2023-01-28T06:35:04.900Z,15.63
2023-01-28T06:37:31.319Z,12.43
2023-01-28T06:39:57.682Z,13.48
2023-01-28T06:42:24.117Z,15.82
2023-01-28T06:44:50.468Z,13.73
2023-01-28T06:47:16.850Z,13.95
2023-01-28T06:49:43.434Z,13.10
2023-01-28T06:52:09.805Z,13.45
2023-01-28T06:54:36.185Z,14.55
2023-01-28T06:57:02.671Z,12.43
2023-01-28T06:59:29.020Z,12.57
2023-01-28T07:01:55.422Z,14.10
2023-01-28T07:04:21.884Z,13.55
2023-01-28T07:06:48.347Z,15.38
2023-01-28T07:09:14.710Z,15.77
2023-01-28T07:11:41.174Z,13.38
2023-01-28T07:14:07.511Z,15.93
2023-01-28T07:16:33.850Z,15.65
2023-01-28T07:19:00.236Z,15.05
2023-01-28T07:21:26.592Z,14.87
2023-01-28T07:23:53.015Z,15.20
2023-01-28T07:26:20.080Z,16.02
2023-01-28T07:28:46.440Z,14.68
2023-01-28T07:31:12.920Z,16.27
2023-01-28T07:33:39.360Z,15.63
2023-01-28T07:36:06.264Z,16.92
2023-01-28T07:38:32.681Z,14.05
2023-01-28T07:40:59.124Z,16.00
2023-01-28T07:43:25.508Z,15.27
2023-01-28T07:45:51.859Z,16.53
2023-01-28T07:48:18.561Z,14.73
2023-01-28T07:50:45.419Z,16.67
2023-01-28T07:53:13.093Z,15.77
2023-01-28T07:55:39.500Z,16.52
2023-01-28T07:58:07.864Z,16.20
2023-01-28T08:00:35.566Z,15.38
2023-01-28T08:03:07.864Z,17.70
2023-01-28T08:06:00.355Z,18.35
2023-01-28T08:08:27.406Z,15.80
2023-01-28T08:10:54.075Z,18.83
2023-01-28T08:13:20.575Z,16.38
2023-01-28T08:15:47.613Z,15.88
2023-01-28T08:18:16.618Z,17.27
2023-01-28T08:20:44.888Z,19.27
2023-01-28T08:23:12.970Z,18.70
2023-01-28T08:25:39.464Z,17.10
2023-01-28T08:28:06.792Z,16.60
2023-01-28T08:30:34.170Z,17.35
2023-01-28T08:33:01.055Z,19.42
2023-01-28T08:35:28.280Z,17.50
2023-01-28T08:37:55.292Z,15.88
2023-01-28T08:40:21.721Z,19.20
2023-01-28T08:42:49.973Z,16.95
2023-01-28T08:45:17.415Z,16.65
2023-01-28T08:47:50.595Z,17.23
2023-01-28T08:50:18.304Z,16.92
2023-01-28T08:52:45.849Z,17.33
2023-01-28T08:55:12.687Z,20.23
2023-01-28T08:57:39.489Z,17.30
2023-01-28T09:00:10.670Z,15.90
2023-01-28T09:02:37.871Z,16.20
2023-01-28T09:05:06.073Z,15.68
2023-01-28T09:07:34.149Z,17.38
2023-01-28T09:10:00.500Z,16.30
2023-01-28T09:12:27.183Z,18.53
2023-01-28T09:14:53.914Z,14.73
2023-01-28T09:17:21.605Z,15.52
2023-01-28T09:19:48.106Z,14.68
2023-01-28T09:22:14.658Z,13.80
2023-01-28T09:24:41.182Z,18.20
2023-01-28T09:27:07.692Z,15.02
2023-01-28T09:29:34.963Z,16.52
2023-01-28T09:32:01.681Z,13.18
2023-01-28T09:34:28.381Z,13.50
2023-01-28T09:36:54.887Z,14.83
2023-01-28T09:39:21.712Z,12.38
2023-01-28T09:42:16.026Z,13.18
2023-01-28T09:44:56.929Z,12.70
2023-01-28T09:47:44.495Z,12.25
2023-01-28T09:50:35.624Z,10.70
2023-01-28T09:53:12.237Z,11.27
2023-01-28T09:55:46.646Z,12.60
2023-01-28T09:58:17.842Z,12.52
2023-01-28T10:01:26.410Z,11.70
2023-01-28T10:04:17.550Z,10.93
2023-01-28T10:07:05.787Z,10.23
2023-01-28T10:09:44.523Z,8.68
2023-01-28T10:15:39.810Z,11.07
2023-01-28T10:18:17.704Z,11.90
2023-01-28T10:20:53.225Z,11.35
2023-01-28T10:23:32.113Z,10.88
2023-01-28T10:26:05.319Z,10.10
2023-01-28T10:28:35.033Z,11.45
2023-01-28T10:31:02.097Z,10.50
2023-01-28T10:33:31.718Z,10.57
2023-01-28T10:35:58.963Z,10.57
2023-01-28T10:38:28.100Z,10.10
2023-01-28T10:41:07.924Z,8.75
2023-01-28T10:43:39.018Z,10.90
2023-01-28T10:46:13.386Z,9.40
2023-01-28T10:48:49.137Z,10.45
2023-01-28T10:51:16.236Z,8.63
2023-01-28T10:53:46.889Z,9.10
2023-01-28T10:56:13.577Z,10.97
2023-01-28T10:58:59.890Z,7.75
2023-01-28T11:01:47.441Z,8.75
2023-01-28T11:04:26.217Z,8.85
2023-01-28T11:07:01.576Z,8.73
2023-01-28T11:09:36.974Z,9.93
2023-01-28T11:12:27.803Z,8.70
2023-01-28T11:15:05.699Z,9.07
2023-01-28T11:17:36.272Z,8.05
2023-01-28T11:20:25.669Z,8.25
2023-01-28T11:22:53.590Z,8.10
2023-01-28T11:25:36.466Z,8.45
2023-01-28T11:28:08.260Z,8.65
2023-01-28T11:30:40.448Z,9.35
2023-01-28T11:33:24.285Z,8.23
2023-01-28T11:35:57.379Z,8.17
2023-01-28T11:38:25.919Z,9.90
2023-01-28T11:40:54.229Z,7.68
2023-01-28T11:43:23.110Z,8.60
2023-01-28T11:46:07.597Z,8.88
2023-01-28T11:48:40.142Z,8.03
2023-01-28T11:51:15.652Z,9.00
2023-01-28T12:58:00.171Z,9.25
2023-01-28T13:00:33.733Z,8.20
2023-01-28T13:03:26.460Z,9.00
2023-01-28T13:05:58.912Z,9.90
2023-01-28T13:08:27.856Z,9.90
2023-01-28T13:10:57.387Z,9.77
2023-01-28T13:13:36.576Z,9.83
2023-01-28T13:16:04.760Z,8.57
2023-01-28T13:18:40.102Z,8.75
2023-01-28T13:21:23.541Z,8.98
2023-01-28T13:23:51.492Z,10.77
2023-01-28T13:26:23.637Z,12.20
2023-01-28T13:28:52.809Z,11.15
2023-01-28T13:31:21.979Z,12.52
2023-01-28T13:34:01.628Z,13.80
2023-01-28T13:36:31.562Z,10.18
2023-01-28T13:39:07.250Z,8.93
2023-01-28T13:41:45.057Z,12.02
2023-01-28T13:44:29.945Z,10.43
2023-01-28T13:47:00.102Z,12.02
2023-01-28T13:49:38.382Z,10.52
2023-01-28T13:52:21.410Z,11.03
2023-01-28T13:54:55.068Z,9.18
2023-01-28T13:57:39.880Z,11.07
2023-01-28T14:00:40.754Z,10.98
2023-01-28T14:03:43.681Z,10.88
2023-01-28T14:06:18.739Z,12.00
2023-01-28T14:08:59.505Z,12.70
2023-01-28T14:11:57.530Z,11.40
2023-01-28T14:14:42.735Z,12.35
2023-01-28T14:17:30.425Z,10.57
2023-01-28T14:19:58.307Z,11.53
2023-01-28T14:22:24.906Z,12.25
2023-01-28T14:24:51.452Z,10.65
2023-01-28T14:27:25.351Z,11.27
2023-01-28T14:30:24.234Z,11.30
2023-01-28T14:32:53.814Z,11.60
2023-01-28T14:35:33.945Z,10.30
2023-01-28T14:38:07.100Z,12.98
2023-01-28T14:40:36.665Z,13.27
2023-01-28T14:43:07.560Z,12.25
2023-01-28T14:45:49.298Z,12.83
2023-01-28T14:48:43.978Z,12.02
2023-01-28T14:51:20.102Z,13.63
2023-01-28T14:54:01.622Z,13.00
2023-01-28T14:56:37.441Z,12.85
2023-01-28T14:59:17.057Z,13.40
2023-01-28T15:01:46.122Z,12.98
2023-01-28T15:04:33.414Z,14.52
2023-01-28T15:07:17.910Z,13.07
2023-01-28T15:09:44.500Z,15.98
2023-01-28T15:12:11.465Z,14.97
2023-01-28T15:14:39.359Z,15.93
2023-01-28T15:17:06.137Z,17.52
2023-01-28T15:19:35.504Z,15.70
2023-01-28T15:22:07.880Z,16.52
2023-01-28T15:24:35.490Z,13.00
2023-01-28T15:27:02.643Z,13.02
2023-01-28T15:29:35.242Z,13.82
2023-01-28T15:32:02.495Z,15.93
2023-01-28T15:34:31.731Z,15.57
2023-01-28T15:36:59.580Z,15.57
2023-01-28T15:39:28.149Z,17.48
2023-01-28T15:42:04.516Z,13.95
2023-01-28T15:44:37.115Z,15.32
2023-01-28T15:47:13.968Z,17.00
2023-01-28T15:49:45.216Z,13.80
2023-01-28T15:52:12.138Z,15.20
2023-01-28T15:54:45.377Z,16.48
2023-01-28T15:57:41.122Z,16.00
2023-01-28T16:00:07.483Z,15.88
2023-01-28T16:02:42.425Z,12.57
2023-01-28T16:05:29.171Z,15.57
2023-01-28T16:07:57.384Z,14.63
2023-01-28T16:10:28.689Z,13.80
2023-01-28T16:13:10.002Z,15.63
2023-01-28T16:15:39.145Z,13.60
2023-01-28T16:18:06.840Z,13.55
2023-01-28T16:20:33.635Z,13.93
2023-01-28T16:23:04.283Z,13.95
2023-01-28T16:25:36.941Z,14.57
2023-01-28T16:28:12.301Z,13.47
2023-01-28T16:30:38.771Z,16.08
2023-01-28T16:33:05.145Z,15.32
2023-01-28T16:35:51.645Z,13.73
2023-01-28T16:38:18.751Z,14.80
2023-01-28T16:40:46.749Z,15.20
2023-01-28T16:43:15.314Z,15.93
2023-01-28T16:45:42.579Z,15.43
2023-01-28T16:48:09.092Z,15.77
2023-01-28T16:50:39.686Z,14.05
2023-01-28T16:53:12.729Z,15.33
2023-01-28T16:55:39.100Z,16.25
2023-01-28T16:58:05.533Z,14.13
2023-01-28T17:00:35.546Z,13.93
2023-01-28T17:03:02.426Z,14.30
2023-01-28T17:05:28.815Z,16.37
2023-01-28T17:07:59.132Z,15.05
2023-01-28T17:10:25.877Z,15.00
2023-01-28T17:12:52.259Z,13.75
2023-01-28T17:15:19.360Z,13.00
2023-01-28T17:17:49.574Z,13.47
2023-01-28T17:20:16.710Z,15.10
2023-01-28T17:22:43.143Z,15.68
2023-01-28T17:25:09.847Z,13.75
2023-01-28T17:27:36.320Z,14.45
2023-01-28T17:30:03.389Z,14.87
2023-01-28T17:32:29.764Z,13.07
2023-01-28T17:34:56.160Z,14.00
2023-01-28T17:37:22.555Z,15.85
2023-01-28T17:39:48.970Z,13.68
2023-01-28T17:42:16.930Z,14.27
2023-01-28T17:44:43.680Z,15.38
2023-01-28T17:47:10.073Z,17.00
2023-01-28T17:49:36.442Z,13.55
2023-01-28T17:52:02.830Z,14.95
2023-01-28T17:54:29.217Z,15.40
2023-01-28T17:56:55.975Z,14.32
2023-01-28T17:59:24.852Z,13.32
2023-01-28T18:01:54.400Z,12.88
2023-01-28T18:04:20.801Z,13.75
2023-01-28T18:06:49.090Z,13.20
2023-01-28T18:09:15.464Z,12.88
2023-01-28T18:11:41.836Z,13.02
2023-01-28T18:14:08.431Z,12.73
2023-01-28T18:16:35.019Z,12.57
2023-01-28T18:19:01.384Z,13.70
2023-01-28T18:21:51.870Z,13.20
2023-01-28T18:24:19.909Z,14.40
2023-01-28T18:26:46.360Z,13.57
2023-01-28T18:29:16.691Z,15.30
2023-01-28T18:31:43.371Z,15.17
2023-01-28T18:34:09.781Z,14.25
2023-01-28T18:36:36.138Z,14.32
2023-01-28T18:39:02.574Z,16.77
2023-01-28T18:41:28.971Z,13.50
2023-01-28T18:43:55.326Z,18.13
2023-01-28T18:46:21.714Z,20.38
2023-01-28T18:48:48.107Z,16.77
2023-01-28T18:51:28.867Z,14.50
2023-01-28T18:54:01.643Z,14.27
2023-01-28T18:56:29.502Z,16.57
2023-01-28T18:59:00.723Z,17.98
2023-01-28T19:01:28.286Z,15.13
2023-01-28T19:03:56.126Z,18.20
2023-01-28T19:06:23.593Z,17.15
2023-01-28T19:08:54.902Z,18.70
2023-01-28T19:11:22.904Z,18.63
2023-01-28T19:13:49.532Z,17.35
2023-01-28T19:16:16.039Z,16.73
2023-01-28T19:18:42.474Z,19.73
2023-01-28T19:21:09.054Z,18.93
2023-01-28T19:23:49.368Z,14.55
2023-01-28T19:26:20.842Z,17.05
2023-01-28T19:28:48.161Z,17.95
2023-01-28T19:31:15.019Z,17.45
2023-01-28T19:33:41.428Z,18.40
2023-01-28T19:36:08.152Z,16.38
2023-01-28T19:38:34.530Z,17.52
2023-01-28T19:41:05.769Z,18.38
2023-01-28T19:43:33.910Z,16.45
2023-01-28T19:46:03.413Z,20.40
2023-01-28T19:48:30.796Z,16.33
2023-01-28T19:50:57.300Z,16.98
2023-01-28T19:53:23.731Z,16.33
2023-01-28T19:55:52.141Z,20.95
2023-01-28T19:58:19.009Z,20.53
2023-01-28T20:00:45.501Z,20.85
2023-01-28T20:03:12.705Z,22.25
2023-01-28T20:05:39.225Z,23.25
2023-01-28T20:08:05.685Z,23.98
2023-01-28T20:10:32.493Z,24.23
2023-01-28T20:12:58.885Z,24.83
2023-01-28T20:15:25.393Z,25.73
2023-01-28T20:17:51.791Z,24.65
2023-01-28T20:20:18.259Z,22.95
2023-01-28T20:22:44.739Z,23.80
2023-01-28T20:25:11.107Z,25.40
2023-01-28T20:27:37.497Z,20.52
2023-01-28T20:30:04.292Z,20.55
2023-01-28T20:32:30.769Z,22.70
2023-01-28T20:34:57.225Z,21.33
2023-01-28T20:37:23.612Z,18.30
2023-01-28T20:39:50.027Z,21.60
2023-01-28T20:42:16.467Z,21.63
2023-01-28T20:44:42.833Z,19.35
2023-01-28T20:47:09.297Z,16.70
2023-01-28T20:49:35.662Z,18.48
2023-01-28T20:52:02.588Z,18.25
2023-01-28T20:54:29.018Z,18.65
2023-01-28T20:56:57.351Z,18.45
2023-01-28T20:59:24.077Z,18.90
2023-01-28T21:01:50.675Z,17.90
2023-01-28T21:04:17.306Z,13.90
2023-01-28T21:06:43.743Z,17.65
2023-01-28T21:09:10.420Z,18.10
2023-01-28T21:11:36.879Z,19.27
2023-01-28T21:14:03.533Z,19.35
2023-01-28T21:16:30.471Z,22.10
2023-01-28T21:18:56.909Z,21.73
2023-01-28T21:21:26.132Z,20.85
2023-01-28T21:23:59.282Z,20.57
2023-01-28T21:26:26.701Z,22.17
2023-01-28T21:28:53.179Z,19.63
2023-01-28T21:31:22.391Z,19.33
2023-01-28T21:33:54.826Z,20.13
2023-01-28T21:36:21.612Z,19.23
2023-01-28T21:38:56.515Z,20.20
2023-01-28T21:41:23.275Z,19.55
2023-01-28T21:43:54.013Z,15.32
2023-01-28T21:46:21.538Z,17.05
2023-01-28T21:48:48.071Z,15.87
2023-01-28T21:51:32.772Z,15.18
2023-01-28T21:53:59.161Z,16.52
2023-01-28T21:56:25.534Z,15.63
2023-01-28T21:59:10.682Z,14.10
2023-01-28T22:01:37.248Z,17.90
2023-01-28T22:04:04.101Z,15.13
2023-01-28T22:06:30.588Z,13.98
2023-01-28T22:08:57.124Z,12.95
2023-01-28T22:11:23.467Z,13.35
2023-01-28T22:13:49.865Z,13.77
2023-01-28T22:16:17.291Z,13.45
2023-01-28T22:18:43.776Z,14.48
2023-01-28T22:21:11.488Z,14.02
2023-01-28T22:23:37.923Z,15.52
2023-01-28T22:26:04.378Z,13.93
2023-01-28T22:28:31.037Z,12.98
2023-01-28T22:31:06.692Z,12.55
2023-01-28T22:33:33.537Z,12.73
2023-01-28T22:35:59.918Z,14.45
2023-01-28T22:38:26.332Z,12.10
2023-01-28T22:40:52.781Z,12.48
2023-01-28T22:43:19.191Z,12.80
2023-01-28T22:45:45.632Z,13.63
2023-01-28T22:48:12.027Z,13.65
2023-01-28T22:50:38.455Z,13.47
2023-01-28T22:53:04.788Z,16.27
2023-01-28T22:55:32.514Z,15.15
2023-01-28T22:57:58.888Z,16.05
2023-01-28T23:00:28.188Z,14.85
2023-01-28T23:02:54.726Z,16.87
2023-01-28T23:05:21.153Z,17.27
2023-01-28T23:07:47.505Z,17.38
2023-01-28T23:10:14.534Z,17.98
2023-01-28T23:12:41.186Z,18.35
2023-01-28T23:15:28.412Z,19.70
2023-01-28T23:18:13.251Z,19.70
2023-01-28T23:20:59.185Z,18.27
2023-01-28T23:23:44.326Z,20.55
2023-01-28T23:26:10.738Z,20.35
2023-01-28T23:28:37.118Z,21.67
2023-01-28T23:31:03.696Z,22.02
2023-01-28T23:33:30.189Z,18.40
2023-01-28T23:35:56.569Z,19.48
2023-01-28T23:38:22.923Z,20.33
2023-01-28T23:40:49.307Z,19.10
2023-01-28T23:43:15.672Z,19.23
2023-01-28T23:45:42.295Z,20.40
2023-01-28T23:48:08.784Z,21.48
2023-01-28T23:50:35.142Z,20.17
2023-01-28T23:53:01.614Z,20.47
2023-01-28T23:55:28.409Z,18.92
2023-01-28T23:57:55.103Z,20.13
